Stafford, United Kingdom
Current Conditions -  °F | °C
As of 11:50 AM on Monday 20 Oct 2014 (Local Time) from EGOS Reporting Station
Light Rain Light Rain  
Wind Chill: 54°   Ceiling: 5000
Heat Index: 54°   Visibility: 6mi
Dew Point: 50°   Wind: 13mph
Humidity: 88%   Direction: 220°SW
Pressure: 29.94"   Gusts: NA
Location:  52.81°N, 2.12°W
Report Text: EGOS 201050Z 22011KT 9999 -RA FEW014 SCT022 BKN050 12/10 Q1014 WHT BECMG FEW022 BLU
Loading
Personal Weather Stations






























Interactive Weather Map
Tropical Storm Tracking
New forecast layout! Learn more

10-Day Weather Forecast

Advertisements
Track Severe Weather on mobile